createdAt,value
2019-01-20T00:00:29.817Z,44.35
2019-01-20T00:01:33.410Z,39.50
2019-01-20T00:02:36.924Z,45.75
2019-01-20T00:03:40.370Z,36.80
2019-01-20T00:04:43.830Z,39.18
2019-01-20T00:05:47.411Z,38.35
2019-01-20T00:06:50.846Z,40.73
2019-01-20T00:07:54.440Z,52.93
2019-01-20T00:08:57.891Z,59.75
2019-01-20T00:10:01.327Z,47.70
2019-01-20T00:11:05.563Z,40.20
2019-01-20T00:12:09.068Z,38.58
2019-01-20T00:13:12.591Z,39.88
2019-01-20T00:14:16.223Z,33.15
2019-01-20T00:15:20.766Z,38.92
2019-01-20T00:16:24.210Z,31.35
2019-01-20T00:17:27.714Z,40.05
2019-01-20T00:18:31.263Z,32.38
2019-01-20T00:19:34.707Z,48.05
2019-01-20T00:20:38.281Z,37.93
2019-01-20T00:21:41.790Z,37.45
2019-01-20T00:22:45.248Z,37.65
2019-01-20T00:23:48.733Z,34.95
2019-01-20T00:24:52.341Z,34.18
2019-01-20T00:25:55.859Z,40.05
2019-01-20T00:26:59.296Z,36.38
2019-01-20T00:28:02.834Z,39.47
2019-01-20T00:29:07.007Z,34.00
2019-01-20T00:30:13.436Z,33.90
2019-01-20T00:31:16.908Z,43.40
2019-01-20T00:32:20.344Z,40.50
2019-01-20T00:33:23.884Z,55.13
2019-01-20T00:34:27.327Z,39.83
2019-01-20T00:35:30.907Z,43.70
2019-01-20T00:36:34.346Z,54.17
2019-01-20T00:37:37.787Z,45.50
2019-01-20T00:38:41.246Z,38.63
2019-01-20T00:39:44.689Z,54.83
2019-01-20T00:40:48.281Z,44.93
2019-01-20T00:41:51.727Z,61.17
2019-01-20T00:42:55.183Z,87.27
2019-01-20T00:43:58.616Z,80.87
2019-01-20T00:45:02.964Z,73.12
2019-01-20T00:46:06.808Z,64.90
2019-01-20T00:47:10.334Z,47.70
2019-01-20T00:48:13.917Z,52.17
2019-01-20T00:49:17.368Z,42.30
2019-01-20T00:50:20.802Z,33.70
2019-01-20T00:51:24.315Z,32.73
2019-01-20T00:52:27.790Z,44.03
2019-01-20T00:53:31.325Z,34.30
2019-01-20T00:54:34.763Z,68.63
2019-01-20T00:55:38.282Z,61.70
2019-01-20T00:56:41.720Z,59.50
2019-01-20T00:57:45.522Z,60.40
2019-01-20T00:58:48.923Z,63.43
2019-01-20T00:59:52.360Z,62.07
2019-01-20T01:00:55.794Z,51.40
2019-01-20T01:01:59.308Z,47.60
2019-01-20T01:03:02.802Z,50.80
2019-01-20T01:04:06.384Z,43.70
2019-01-20T01:05:10.035Z,38.87
2019-01-20T01:06:13.512Z,51.75
2019-01-20T01:07:17.031Z,44.40
2019-01-20T01:08:20.496Z,50.23
2019-01-20T01:09:24.010Z,54.23
2019-01-20T01:10:27.522Z,43.20
2019-01-20T01:11:31.874Z,47.63
2019-01-20T01:12:35.546Z,33.23
2019-01-20T01:13:39.140Z,44.85
2019-01-20T01:14:43.051Z,69.57
2019-01-20T01:15:46.492Z,69.10
2019-01-20T01:16:50.103Z,167.03
2019-01-20T01:17:53.572Z,299.10
2019-01-20T01:18:57.043Z,178.27
2019-01-20T01:20:00.558Z,187.90
2019-01-20T01:21:04.073Z,175.57
2019-01-20T01:22:07.670Z,190.87
2019-01-20T01:23:11.271Z,205.05
2019-01-20T01:24:14.707Z,174.90
2019-01-20T01:25:18.484Z,172.17
2019-01-20T01:26:21.989Z,163.20
2019-01-20T01:27:25.455Z,161.30
2019-01-20T01:28:28.986Z,134.03
2019-01-20T01:29:32.490Z,146.87
2019-01-20T01:30:35.939Z,182.87
2019-01-20T01:31:39.444Z,167.87
2019-01-20T01:32:42.928Z,172.67
2019-01-20T01:33:46.372Z,153.80
2019-01-20T01:34:49.808Z,129.47
2019-01-20T01:35:53.307Z,146.93
2019-01-20T01:36:56.740Z,126.13
2019-01-20T01:38:00.203Z,146.27
2019-01-20T01:39:05.230Z,136.70
2019-01-20T01:40:11.613Z,149.57
2019-01-20T01:41:15.208Z,137.63
2019-01-20T01:42:18.729Z,144.47
2019-01-20T01:43:22.263Z,127.07
2019-01-20T01:44:25.774Z,162.27
2019-01-20T01:45:29.284Z,169.97
2019-01-20T01:46:32.729Z,172.37
2019-01-20T01:47:36.162Z,161.40
2019-01-20T01:48:39.622Z,163.73
2019-01-20T01:49:43.142Z,169.20
2019-01-20T01:50:46.586Z,187.47
2019-01-20T01:51:50.045Z,181.80
2019-01-20T01:52:53.571Z,204.37
2019-01-20T01:53:57.019Z,188.12
2019-01-20T01:55:00.466Z,188.27
2019-01-20T01:56:04.055Z,187.37
2019-01-20T01:57:07.548Z,193.23
2019-01-20T01:58:11.017Z,168.93
2019-01-20T01:59:14.527Z,188.87
2019-01-20T02:00:20.478Z,169.07
2019-01-20T02:01:23.945Z,163.60
2019-01-20T02:02:27.393Z,139.43
2019-01-20T02:03:30.955Z,151.07
2019-01-20T02:04:34.467Z,158.40
2019-01-20T02:05:37.991Z,113.88
2019-01-20T02:06:41.500Z,72.23
2019-01-20T02:07:45.047Z,82.30
2019-01-20T02:08:48.498Z,65.13
2019-01-20T02:09:51.964Z,88.53
2019-01-20T02:10:55.397Z,89.63
2019-01-20T02:11:59.050Z,106.03
2019-01-20T02:13:02.616Z,119.63
2019-01-20T02:14:06.321Z,152.17
2019-01-20T02:15:12.013Z,166.40
2019-01-20T02:16:15.535Z,170.00
2019-01-20T02:17:19.053Z,170.17
2019-01-20T02:18:22.493Z,167.27
2019-01-20T02:19:26.033Z,157.63
2019-01-20T02:20:29.565Z,136.70
2019-01-20T02:21:33.149Z,152.20
2019-01-20T02:22:36.762Z,139.93
2019-01-20T02:23:40.220Z,141.33
2019-01-20T02:24:43.678Z,135.27
2019-01-20T02:25:47.141Z,160.30
2019-01-20T02:26:50.598Z,282.62
2019-01-20T02:27:54.773Z,267.20
2019-01-20T02:28:58.223Z,255.53
2019-01-20T02:30:01.758Z,210.15
2019-01-20T02:31:05.398Z,202.23
2019-01-20T02:32:08.906Z,166.87
2019-01-20T02:33:12.414Z,149.20
2019-01-20T02:34:15.891Z,135.43
2019-01-20T02:35:19.531Z,134.70
2019-01-20T02:36:22.972Z,91.30
2019-01-20T02:37:26.484Z,110.60
2019-01-20T02:38:29.925Z,110.73
2019-01-20T02:39:33.372Z,107.60
2019-01-20T02:40:36.837Z,108.47
2019-01-20T02:41:40.278Z,98.25
2019-01-20T02:42:43.706Z,90.87
2019-01-20T02:43:47.222Z,88.60
2019-01-20T02:44:50.656Z,89.67
2019-01-20T02:45:54.178Z,77.27
2019-01-20T02:46:57.632Z,79.73
2019-01-20T02:48:01.162Z,67.43
2019-01-20T02:49:04.735Z,74.80
2019-01-20T02:50:11.136Z,60.03
2019-01-20T02:51:14.576Z,61.80
2019-01-20T02:52:18.027Z,74.40
2019-01-20T02:53:21.492Z,68.83
2019-01-20T02:54:25.078Z,56.50
2019-01-20T02:55:28.678Z,49.50
2019-01-20T02:56:32.121Z,40.70
2019-01-20T02:57:35.650Z,41.23
2019-01-20T02:58:39.086Z,61.73
2019-01-20T02:59:42.604Z,82.60
2019-01-20T03:00:46.184Z,79.37
2019-01-20T03:01:49.762Z,61.40
2019-01-20T03:02:53.288Z,52.03
2019-01-20T03:03:56.793Z,58.30
2019-01-20T03:05:00.263Z,104.87
2019-01-20T03:06:03.894Z,145.43
2019-01-20T03:07:07.330Z,126.13
2019-01-20T03:08:10.768Z,121.50
2019-01-20T03:09:14.204Z,136.90
2019-01-20T03:10:17.806Z,130.30
2019-01-20T03:11:21.398Z,136.37
2019-01-20T03:12:24.908Z,142.83
2019-01-20T03:13:28.346Z,158.67
2019-01-20T03:14:31.858Z,171.47
2019-01-20T03:15:35.458Z,119.53
2019-01-20T03:16:38.967Z,108.83
2019-01-20T03:17:42.478Z,119.35
2019-01-20T03:18:45.988Z,96.07
2019-01-20T03:19:49.497Z,91.60
2019-01-20T03:20:52.945Z,90.93
2019-01-20T03:21:56.478Z,77.60
2019-01-20T03:22:59.914Z,64.27
2019-01-20T03:24:03.352Z,58.37
2019-01-20T03:25:09.850Z,48.03
2019-01-20T03:26:13.315Z,50.33
2019-01-20T03:27:16.777Z,49.73
2019-01-20T03:28:20.217Z,54.47
2019-01-20T03:29:23.652Z,48.63
2019-01-20T03:30:27.112Z,45.47
2019-01-20T03:31:30.633Z,38.60
2019-01-20T03:32:34.078Z,34.80
2019-01-20T03:33:37.581Z,29.93
2019-01-20T03:34:41.031Z,31.10
2019-01-20T03:35:44.559Z,32.93
2019-01-20T03:36:48.003Z,27.33
2019-01-20T03:37:51.520Z,30.43
2019-01-20T03:38:54.977Z,31.83
2019-01-20T03:39:58.423Z,32.50
2019-01-20T03:41:01.944Z,28.67
2019-01-20T03:42:11.931Z,36.10
2019-01-20T03:43:10.848Z,32.47
2019-01-20T03:44:14.357Z,36.07
2019-01-20T03:45:21.160Z,28.23
2019-01-20T03:46:24.630Z,31.60
2019-01-20T03:47:28.141Z,38.78
2019-01-20T03:48:31.643Z,31.97
2019-01-20T03:49:35.155Z,32.13
2019-01-20T03:50:38.611Z,57.30
2019-01-20T03:51:42.049Z,61.80
2019-01-20T03:52:45.740Z,37.93
2019-01-20T03:53:49.251Z,46.23
2019-01-20T03:54:52.762Z,42.53
2019-01-20T03:55:56.364Z,32.90
2019-01-20T03:56:59.973Z,27.87
2019-01-20T03:58:03.478Z,34.30
2019-01-20T03:59:06.981Z,29.50
2019-01-20T04:00:13.535Z,32.25
2019-01-20T04:01:16.988Z,26.97
2019-01-20T04:02:21.922Z,33.07
2019-01-20T04:03:25.364Z,34.80
2019-01-20T04:04:28.805Z,27.95
2019-01-20T04:05:32.337Z,30.00
2019-01-20T04:06:35.850Z,28.10
2019-01-20T04:07:39.292Z,35.93
2019-01-20T04:08:42.735Z,37.47
2019-01-20T04:09:46.169Z,41.00
2019-01-20T04:10:49.627Z,50.23
2019-01-20T04:11:53.065Z,54.87
2019-01-20T04:12:56.579Z,65.90
2019-01-20T04:14:00.009Z,51.33
2019-01-20T04:15:03.585Z,53.57
2019-01-20T04:16:07.030Z,51.23
2019-01-20T04:17:18.499Z,51.87
2019-01-20T04:18:21.940Z,72.20
2019-01-20T04:19:25.383Z,64.47
2019-01-20T04:20:28.851Z,79.90
2019-01-20T04:21:32.392Z,91.30
2019-01-20T04:22:35.892Z,73.53
2019-01-20T04:23:39.337Z,63.07
2019-01-20T04:24:42.812Z,58.27
2019-01-20T04:25:47.711Z,53.10
2019-01-20T04:26:51.154Z,36.48
2019-01-20T04:27:54.661Z,35.03
2019-01-20T04:28:58.101Z,31.17
2019-01-20T04:30:01.534Z,32.33
2019-01-20T04:31:05.075Z,33.80
2019-01-20T04:32:08.512Z,32.57
2019-01-20T04:33:12.018Z,33.27
2019-01-20T04:34:15.468Z,42.20
2019-01-20T04:35:19.046Z,38.00
2019-01-20T04:36:22.510Z,35.00
2019-01-20T04:37:26.035Z,41.97
2019-01-20T04:38:29.472Z,45.20
2019-01-20T04:39:32.986Z,47.53
2019-01-20T04:40:36.468Z,56.40
2019-01-20T04:41:39.973Z,59.33
2019-01-20T04:42:43.486Z,57.83
2019-01-20T04:43:46.930Z,48.47
2019-01-20T04:44:50.372Z,63.40
2019-01-20T04:45:53.863Z,46.23
2019-01-20T04:46:57.370Z,43.73
2019-01-20T04:48:00.815Z,45.77
2019-01-20T04:49:04.400Z,40.80
2019-01-20T04:50:13.668Z,48.52
2019-01-20T04:51:17.121Z,58.67
2019-01-20T04:52:20.639Z,64.65
2019-01-20T04:53:24.152Z,57.27
2019-01-20T04:54:27.668Z,53.93
2019-01-20T04:55:31.122Z,58.37
2019-01-20T04:56:34.581Z,73.80
2019-01-20T04:57:38.330Z,43.73
2019-01-20T04:58:41.766Z,42.25
2019-01-20T04:59:45.207Z,38.20
2019-01-20T05:00:48.670Z,40.40
2019-01-20T05:01:52.196Z,46.00
2019-01-20T05:02:55.699Z,61.43
2019-01-20T05:03:59.134Z,70.23
2019-01-20T05:05:02.716Z,75.07
2019-01-20T05:06:06.274Z,60.93
2019-01-20T05:07:09.706Z,47.03
2019-01-20T05:08:13.172Z,49.17
2019-01-20T05:09:16.662Z,40.90
2019-01-20T05:10:20.196Z,37.20
2019-01-20T05:11:23.710Z,34.53
2019-01-20T05:12:27.171Z,55.33
2019-01-20T05:13:30.608Z,118.80
2019-01-20T05:14:34.103Z,163.87
2019-01-20T05:15:37.609Z,192.93
2019-01-20T05:16:41.174Z,218.87
2019-01-20T05:17:44.683Z,163.20
2019-01-20T05:18:48.253Z,148.20
2019-01-20T05:19:51.700Z,104.67
2019-01-20T05:20:55.166Z,61.63
2019-01-20T05:21:58.602Z,71.40
2019-01-20T05:23:02.039Z,62.67
2019-01-20T05:24:05.477Z,71.53
2019-01-20T05:25:10.852Z,109.63
2019-01-20T05:26:14.390Z,200.83
2019-01-20T05:27:17.835Z,200.37
2019-01-20T05:28:21.277Z,196.93
2019-01-20T05:29:24.725Z,194.67
2019-01-20T05:30:28.336Z,246.23
2019-01-20T05:31:31.847Z,282.13
2019-01-20T05:32:35.287Z,255.52
2019-01-20T05:33:38.734Z,210.47
2019-01-20T05:34:42.186Z,133.63
2019-01-20T05:35:45.647Z,147.07
2019-01-20T05:36:49.092Z,158.07
2019-01-20T05:37:52.598Z,133.93
2019-01-20T05:38:56.037Z,128.67
2019-01-20T05:39:59.480Z,101.23
2019-01-20T05:41:02.942Z,101.85
2019-01-20T05:42:06.450Z,73.33
2019-01-20T05:43:09.889Z,74.10
2019-01-20T05:44:13.322Z,69.80
2019-01-20T05:45:22.052Z,49.10
2019-01-20T05:46:25.519Z,51.30
2019-01-20T05:47:29.034Z,43.17
2019-01-20T05:48:32.893Z,37.60
2019-01-20T05:49:36.289Z,37.13
2019-01-20T05:50:39.819Z,33.17
2019-01-20T05:51:43.242Z,33.98
2019-01-20T05:52:46.749Z,47.23
2019-01-20T05:53:50.198Z,38.20
2019-01-20T05:54:53.721Z,72.23
2019-01-20T05:55:57.156Z,86.73
2019-01-20T05:57:00.648Z,114.60
2019-01-20T05:58:04.137Z,75.60
2019-01-20T05:59:07.540Z,70.07
2019-01-20T06:00:14.091Z,85.30
2019-01-20T06:01:17.547Z,100.00
2019-01-20T06:02:20.985Z,74.35
2019-01-20T06:03:24.429Z,94.53
2019-01-20T06:04:27.858Z,97.90
2019-01-20T06:05:31.339Z,91.83
2019-01-20T06:06:34.748Z,87.63
2019-01-20T06:07:38.270Z,75.43
2019-01-20T06:08:41.702Z,140.50
2019-01-20T06:09:45.149Z,110.83
2019-01-20T06:10:48.620Z,82.63
2019-01-20T06:11:52.070Z,98.30
2019-01-20T06:12:55.683Z,90.70
2019-01-20T06:13:59.121Z,58.30
2019-01-20T06:15:02.567Z,70.97
2019-01-20T06:16:06.047Z,47.50
2019-01-20T06:17:09.518Z,37.53
2019-01-20T06:18:12.966Z,33.70
2019-01-20T06:19:16.392Z,29.20
2019-01-20T06:20:19.965Z,29.37
2019-01-20T06:21:23.433Z,29.50
2019-01-20T06:22:26.877Z,29.70
2019-01-20T06:23:30.323Z,33.00
2019-01-20T06:24:35.343Z,25.70
2019-01-20T06:25:39.300Z,26.10
2019-01-20T06:26:42.955Z,29.57
2019-01-20T06:27:46.470Z,27.90
2019-01-20T06:28:49.915Z,26.70
2019-01-20T06:29:53.455Z,21.02
2019-01-20T06:30:56.891Z,23.40
2019-01-20T06:32:00.351Z,26.63
2019-01-20T06:33:03.857Z,28.70
2019-01-20T06:34:07.298Z,24.00
2019-01-20T06:35:10.816Z,23.00
2019-01-20T06:36:14.257Z,23.70
2019-01-20T06:37:17.791Z,26.20
2019-01-20T06:38:21.228Z,27.67
2019-01-20T06:39:24.668Z,29.67
2019-01-20T06:40:28.240Z,28.17
2019-01-20T06:41:31.713Z,26.03
2019-01-20T06:42:35.144Z,31.80
2019-01-20T06:43:38.650Z,30.30
2019-01-20T06:44:42.089Z,31.80
2019-01-20T06:45:45.612Z,29.27
2019-01-20T06:46:49.067Z,24.20
2019-01-20T06:47:52.598Z,29.70
2019-01-20T06:48:56.078Z,31.20
2019-01-20T06:49:59.524Z,30.80
2019-01-20T06:51:02.986Z,29.83
2019-01-20T06:52:06.509Z,25.73
2019-01-20T06:53:10.014Z,27.70
2019-01-20T06:54:13.463Z,26.77
2019-01-20T06:55:17.081Z,36.40
2019-01-20T06:56:20.614Z,29.27
2019-01-20T06:57:24.069Z,20.63
2019-01-20T06:58:27.505Z,19.93
2019-01-20T06:59:30.981Z,30.67
2019-01-20T07:00:34.458Z,27.20
2019-01-20T07:01:37.898Z,28.10
2019-01-20T07:02:41.363Z,22.60
2019-01-20T07:03:44.873Z,27.13
2019-01-20T07:04:48.467Z,21.83
2019-01-20T07:05:51.909Z,29.10
2019-01-20T07:06:55.344Z,20.30
2019-01-20T07:07:58.912Z,27.77
2019-01-20T07:09:02.340Z,26.57
2019-01-20T07:10:08.712Z,24.60
2019-01-20T07:11:12.243Z,28.40
2019-01-20T07:12:15.656Z,22.93
2019-01-20T07:13:19.122Z,25.77
2019-01-20T07:14:22.555Z,20.70
2019-01-20T07:15:26.057Z,24.40
2019-01-20T07:16:29.563Z,23.20
2019-01-20T07:17:33.002Z,23.53
2019-01-20T07:18:36.492Z,27.97
2019-01-20T07:19:39.939Z,23.47
2019-01-20T07:20:43.520Z,25.10
2019-01-20T07:21:46.953Z,20.33
2019-01-20T07:22:50.635Z,21.63
2019-01-20T07:23:54.151Z,21.05
2019-01-20T07:24:57.595Z,25.03
2019-01-20T07:26:01.039Z,23.60
2019-01-20T07:27:04.844Z,20.00
2019-01-20T07:28:08.302Z,28.63
2019-01-20T07:29:11.809Z,21.77
2019-01-20T07:30:22.299Z,28.93
2019-01-20T07:31:25.803Z,24.50
2019-01-20T07:32:29.318Z,20.70
2019-01-20T07:33:32.782Z,29.33
2019-01-20T07:34:36.382Z,25.13
2019-01-20T07:35:39.908Z,21.67
2019-01-20T07:36:43.479Z,27.77
2019-01-20T07:37:47.191Z,22.60
2019-01-20T07:38:50.639Z,23.97
2019-01-20T07:39:54.250Z,29.90
2019-01-20T07:40:57.696Z,22.40
2019-01-20T07:42:01.213Z,27.00
2019-01-20T07:43:04.798Z,22.07
2019-01-20T07:44:08.236Z,23.25
2019-01-20T07:45:13.223Z,22.67
2019-01-20T07:46:16.667Z,22.97
2019-01-20T07:47:20.102Z,28.77
2019-01-20T07:48:23.565Z,25.97
2019-01-20T07:49:27.069Z,23.20
2019-01-20T07:50:30.742Z,22.60
2019-01-20T07:51:34.197Z,25.97
2019-01-20T07:52:37.631Z,18.90
2019-01-20T07:53:41.100Z,18.13
2019-01-20T07:54:44.615Z,19.30
2019-01-20T07:55:48.056Z,22.67
2019-01-20T07:56:51.608Z,22.13
2019-01-20T07:57:55.060Z,21.37
2019-01-20T07:58:58.590Z,26.50
2019-01-20T08:00:02.025Z,20.07
2019-01-20T08:01:05.533Z,20.13
2019-01-20T08:02:08.962Z,17.87
2019-01-20T08:03:12.452Z,19.50
2019-01-20T08:04:15.893Z,19.17
2019-01-20T08:05:19.758Z,16.30
2019-01-20T08:06:23.210Z,20.10
2019-01-20T08:07:26.653Z,25.70
2019-01-20T08:08:30.121Z,23.27
2019-01-20T08:09:33.563Z,25.60
2019-01-20T08:10:37.037Z,17.23
2019-01-20T08:11:40.850Z,17.00
2019-01-20T08:12:44.361Z,22.20
2019-01-20T08:13:47.844Z,21.87
2019-01-20T08:14:51.414Z,14.97
2019-01-20T08:15:54.857Z,26.00
2019-01-20T08:16:58.360Z,18.20
2019-01-20T08:18:01.845Z,25.40
2019-01-20T08:19:05.358Z,16.00
2019-01-20T08:20:14.180Z,15.43
2019-01-20T08:21:17.611Z,14.80
2019-01-20T08:22:21.123Z,18.90
2019-01-20T08:23:24.575Z,12.03
2019-01-20T08:24:28.007Z,20.27
2019-01-20T08:25:31.506Z,16.07
2019-01-20T08:26:34.938Z,20.00
2019-01-20T08:27:38.445Z,15.70
2019-01-20T08:28:41.907Z,17.95
2019-01-20T08:29:45.343Z,14.30
2019-01-20T08:30:48.860Z,14.10
2019-01-20T08:31:52.306Z,15.60
2019-01-20T08:32:56.301Z,24.80
2019-01-20T08:33:59.805Z,10.97
2019-01-20T08:35:03.700Z,12.13
2019-01-20T08:36:07.207Z,14.43
2019-01-20T08:37:10.641Z,14.50
2019-01-20T08:38:14.151Z,16.90
2019-01-20T08:39:17.603Z,13.63
2019-01-20T08:40:26.555Z,22.17
2019-01-20T08:41:29.983Z,21.40
2019-01-20T08:42:33.533Z,16.87
2019-01-20T08:43:37.430Z,15.37
2019-01-20T08:44:40.872Z,13.20
2019-01-20T08:45:53.138Z,13.33
2019-01-20T08:46:56.644Z,15.80
2019-01-20T08:48:03.209Z,16.30
2019-01-20T08:49:06.809Z,13.10
2019-01-20T08:50:11.081Z,18.20
2019-01-20T08:51:14.588Z,18.40
2019-01-20T08:52:18.039Z,16.23
2019-01-20T08:53:21.552Z,16.43
2019-01-20T08:54:25.006Z,15.33
2019-01-20T08:55:28.424Z,22.53
2019-01-20T08:56:31.931Z,13.50
2019-01-20T08:57:35.437Z,11.00
2019-01-20T08:58:38.972Z,17.60
2019-01-20T08:59:42.412Z,12.97
2019-01-20T09:00:45.925Z,13.40
2019-01-20T09:01:49.359Z,13.33
2019-01-20T09:02:52.869Z,17.60
2019-01-20T09:03:56.510Z,16.93
2019-01-20T09:05:00.016Z,12.30
2019-01-20T09:06:03.523Z,12.23
2019-01-20T09:07:07.290Z,12.97
2019-01-20T09:08:12.463Z,18.10
2019-01-20T09:09:16.101Z,13.58
2019-01-20T09:10:22.537Z,13.73
2019-01-20T09:11:26.130Z,14.80
2019-01-20T09:12:30.236Z,12.00
2019-01-20T09:13:39.571Z,19.37
2019-01-20T09:14:39.248Z,12.00
2019-01-20T09:15:42.844Z,18.80
2019-01-20T09:16:46.287Z,17.77
2019-01-20T09:17:49.861Z,17.40
2019-01-20T09:18:53.376Z,19.63
2019-01-20T09:19:56.931Z,14.13
2019-01-20T09:21:00.465Z,16.85
2019-01-20T09:22:04.187Z,18.13
2019-01-20T09:23:07.688Z,23.60
2019-01-20T09:24:11.192Z,12.00
2019-01-20T09:25:15.402Z,13.70
2019-01-20T09:26:19.032Z,12.17
2019-01-20T09:27:22.526Z,18.17
2019-01-20T09:28:25.971Z,16.53
2019-01-20T09:29:29.409Z,14.03
2019-01-20T09:30:33.041Z,19.63
2019-01-20T09:31:36.563Z,15.97
2019-01-20T09:32:40.293Z,12.17
2019-01-20T09:33:44.042Z,13.58
2019-01-20T09:34:47.475Z,21.37
2019-01-20T09:35:50.959Z,12.73
2019-01-20T09:36:54.471Z,13.03
2019-01-20T09:37:57.911Z,15.20
2019-01-20T09:39:01.413Z,17.30
2019-01-20T09:40:07.172Z,17.55
2019-01-20T09:41:10.623Z,13.33
2019-01-20T09:42:14.082Z,22.67
2019-01-20T09:43:17.565Z,13.40
2019-01-20T09:44:20.996Z,20.10
2019-01-20T09:45:30.139Z,28.67
2019-01-20T09:46:33.648Z,61.57
2019-01-20T09:47:37.168Z,22.93
2019-01-20T09:48:40.683Z,24.45
2019-01-20T09:49:44.117Z,32.20
2019-01-20T09:50:47.634Z,27.63
2019-01-20T09:51:51.476Z,20.23
2019-01-20T09:52:54.971Z,13.27
2019-01-20T09:53:58.461Z,16.03
2019-01-20T09:55:01.895Z,17.70
2019-01-20T09:56:05.666Z,21.73
2019-01-20T09:57:09.150Z,22.60
2019-01-20T09:58:12.826Z,26.07
2019-01-20T09:59:16.331Z,21.73
2019-01-20T10:00:22.407Z,41.23
2019-01-20T10:01:25.860Z,38.10
2019-01-20T10:02:29.369Z,19.37
2019-01-20T10:03:32.962Z,26.87
2019-01-20T10:04:36.399Z,29.53
2019-01-20T10:05:39.987Z,46.23
2019-01-20T10:06:43.662Z,41.33
2019-01-20T10:07:47.233Z,32.27
2019-01-20T10:08:50.680Z,32.37
2019-01-20T10:09:54.157Z,18.07
2019-01-20T10:10:57.654Z,25.20
2019-01-20T10:12:01.231Z,21.80
2019-01-20T10:13:04.753Z,24.17
2019-01-20T10:14:08.205Z,34.87
2019-01-20T10:15:14.333Z,39.67
2019-01-20T10:16:17.896Z,52.10
2019-01-20T10:17:21.377Z,40.90
2019-01-20T10:18:24.839Z,25.37
2019-01-20T10:19:28.408Z,26.47
2019-01-20T10:20:36.635Z,21.90
2019-01-20T10:21:40.179Z,19.00
2019-01-20T10:22:43.690Z,39.67
2019-01-20T10:23:47.131Z,19.13
2019-01-20T10:24:50.689Z,33.30
2019-01-20T10:25:54.195Z,18.40
2019-01-20T10:26:57.646Z,18.67
2019-01-20T10:28:01.150Z,18.10
2019-01-20T10:29:04.724Z,17.35
2019-01-20T10:30:13.899Z,16.67
2019-01-20T10:31:17.405Z,20.47
2019-01-20T10:32:20.940Z,22.93
2019-01-20T10:33:24.373Z,28.90
2019-01-20T10:34:27.802Z,26.80
2019-01-20T10:35:32.944Z,16.50
2019-01-20T10:36:36.382Z,15.83
2019-01-20T10:37:40.002Z,13.83
2019-01-20T10:38:43.436Z,14.20
2019-01-20T10:39:46.958Z,27.67
2019-01-20T10:40:50.568Z,22.43
2019-01-20T10:41:54.153Z,19.80
2019-01-20T10:42:57.575Z,16.80
2019-01-20T10:44:02.271Z,16.30
2019-01-20T10:45:08.859Z,22.00
2019-01-20T10:46:12.573Z,29.27
2019-01-20T10:47:16.118Z,23.02
2019-01-20T10:48:19.718Z,28.67
2019-01-20T10:49:23.146Z,14.40
2019-01-20T10:50:26.733Z,22.07
2019-01-20T10:51:30.176Z,15.20
2019-01-20T10:52:33.708Z,21.90
2019-01-20T10:53:37.213Z,37.70
2019-01-20T10:54:40.791Z,33.88
2019-01-20T10:55:44.297Z,30.75
2019-01-20T10:56:52.214Z,27.03
2019-01-20T10:57:55.646Z,26.20
2019-01-20T10:58:59.242Z,15.53
2019-01-20T11:00:02.821Z,37.73
2019-01-20T11:01:06.318Z,19.25
2019-01-20T11:02:09.936Z,26.73
2019-01-20T11:03:13.505Z,29.43
2019-01-20T11:04:17.047Z,42.03
2019-01-20T11:05:25.031Z,36.37
2019-01-20T11:06:25.934Z,19.13
2019-01-20T11:07:29.396Z,29.20
2019-01-20T11:08:32.843Z,23.77
2019-01-20T11:09:36.287Z,21.20
2019-01-20T11:10:40.198Z,32.73
2019-01-20T11:11:43.752Z,20.30
2019-01-20T11:12:47.426Z,26.07
2019-01-20T11:13:51.043Z,23.40
2019-01-20T11:14:54.580Z,26.60
2019-01-20T11:15:58.039Z,22.50
2019-01-20T11:17:01.643Z,34.27
2019-01-20T11:18:05.343Z,30.80
2019-01-20T11:19:08.943Z,39.90
2019-01-20T11:20:18.163Z,35.43
2019-01-20T11:21:21.731Z,29.03
2019-01-20T11:22:25.273Z,29.23
2019-01-20T11:23:32.873Z,33.87
2019-01-20T11:24:36.053Z,49.87
2019-01-20T11:25:42.279Z,38.83
2019-01-20T11:26:45.842Z,37.47
2019-01-20T11:27:49.419Z,25.67
2019-01-20T11:28:52.942Z,30.93
2019-01-20T11:29:56.449Z,46.08
2019-01-20T11:31:00.161Z,38.38
2019-01-20T11:32:03.747Z,40.43
2019-01-20T11:33:07.466Z,38.90
2019-01-20T11:34:11.047Z,38.03
2019-01-20T11:35:19.292Z,41.63
2019-01-20T11:36:22.946Z,38.03
2019-01-20T11:37:26.469Z,44.23
2019-01-20T11:38:29.984Z,47.83
2019-01-20T11:39:33.560Z,41.73
2019-01-20T11:40:37.067Z,45.30
2019-01-20T11:41:40.505Z,42.17
2019-01-20T11:42:44.108Z,42.13
2019-01-20T11:43:47.704Z,58.63
2019-01-20T11:44:51.157Z,51.17
2019-01-20T11:45:54.682Z,49.50
2019-01-20T11:46:58.199Z,43.03
2019-01-20T11:48:01.783Z,45.30
2019-01-20T11:49:05.433Z,53.60
2019-01-20T11:50:12.001Z,56.20
2019-01-20T11:51:15.495Z,46.90
2019-01-20T11:52:19.117Z,60.13
2019-01-20T11:53:22.815Z,43.13
2019-01-20T11:54:26.252Z,41.70
2019-01-20T11:55:29.901Z,50.43
2019-01-20T11:56:33.485Z,50.23
2019-01-20T11:57:37.025Z,49.73
2019-01-20T11:58:40.909Z,63.13
2019-01-20T11:59:44.403Z,43.43
2019-01-20T12:00:47.920Z,55.13
2019-01-20T12:01:51.354Z,45.23
2019-01-20T12:02:54.878Z,44.87
2019-01-20T12:03:58.307Z,45.50
2019-01-20T12:05:01.841Z,54.70
2019-01-20T12:06:05.625Z,43.60
2019-01-20T12:07:09.319Z,43.20
2019-01-20T12:08:13.058Z,47.57
2019-01-20T12:09:16.592Z,38.90
2019-01-20T12:10:20.275Z,46.50
2019-01-20T12:11:23.789Z,41.53
2019-01-20T12:12:27.828Z,80.97
2019-01-20T12:13:31.669Z,67.70
2019-01-20T12:14:35.335Z,153.73
2019-01-20T12:15:39.190Z,72.53
2019-01-20T12:16:42.694Z,69.67
2019-01-20T12:17:46.289Z,55.80
2019-01-20T12:18:50.497Z,57.00
2019-01-20T12:19:54.087Z,65.97
2019-01-20T12:20:57.622Z,75.97
2019-01-20T12:22:01.107Z,53.10
2019-01-20T12:23:05.415Z,45.20
2019-01-20T12:24:08.944Z,49.20
2019-01-20T12:25:17.852Z,43.40
2019-01-20T12:26:21.433Z,47.17
2019-01-20T12:27:24.897Z,55.40
2019-01-20T12:28:28.327Z,53.47
2019-01-20T12:29:31.836Z,50.30
2019-01-20T12:30:39.400Z,49.00
2019-01-20T12:31:42.826Z,50.20
2019-01-20T12:32:46.486Z,52.60
2019-01-20T12:33:49.919Z,61.70
2019-01-20T12:34:53.424Z,68.52
2019-01-20T12:35:57.127Z,46.77
2019-01-20T12:37:00.570Z,45.00
2019-01-20T12:38:04.409Z,44.30
2019-01-20T12:39:08.722Z,61.93
2019-01-20T12:40:15.770Z,50.10
2019-01-20T12:41:19.340Z,51.03
2019-01-20T12:42:23.062Z,65.63
2019-01-20T12:43:26.717Z,48.37
2019-01-20T12:44:31.579Z,62.20
2019-01-20T12:45:35.267Z,55.50
2019-01-20T12:46:39.156Z,44.73
2019-01-20T12:47:42.846Z,44.50
2019-01-20T12:48:46.426Z,46.57
2019-01-20T12:49:50.256Z,58.93
2019-01-20T12:50:58.428Z,49.00
2019-01-20T12:52:19.972Z,40.08
2019-01-20T12:53:23.690Z,47.73
2019-01-20T12:54:27.237Z,45.80
2019-01-20T12:55:31.356Z,64.33
2019-01-20T12:56:34.912Z,46.90
2019-01-20T12:57:38.509Z,41.70
2019-01-20T12:58:42.084Z,47.47
2019-01-20T12:59:45.685Z,46.53
2019-01-20T13:00:49.208Z,43.90
2019-01-20T13:01:52.646Z,41.37
2019-01-20T13:02:56.350Z,40.27
2019-01-20T13:03:59.936Z,44.27
2019-01-20T13:05:04.625Z,44.83
2019-01-20T13:06:08.129Z,48.10
2019-01-20T13:07:11.719Z,52.57
2019-01-20T13:08:15.262Z,47.30
2019-01-20T13:09:20.621Z,43.77
2019-01-20T13:10:24.292Z,42.70
2019-01-20T13:11:27.808Z,56.73
2019-01-20T13:12:31.380Z,42.07
2019-01-20T13:13:34.984Z,43.57
2019-01-20T13:14:39.092Z,55.70
2019-01-20T13:15:42.902Z,44.20
2019-01-20T13:16:46.445Z,47.83
2019-01-20T13:17:49.985Z,46.92
2019-01-20T13:18:53.449Z,47.23
2019-01-20T13:19:57.020Z,44.50
2019-01-20T13:21:00.532Z,43.20
2019-01-20T13:22:04.049Z,40.30
2019-01-20T13:23:07.666Z,43.90
2019-01-20T13:24:11.114Z,47.00
2019-01-20T13:25:17.559Z,36.77
2019-01-20T13:26:21.018Z,41.70
2019-01-20T13:27:24.552Z,38.97
2019-01-20T13:28:28.197Z,45.73
2019-01-20T13:29:31.603Z,38.30
2019-01-20T13:30:35.184Z,45.40
2019-01-20T13:31:38.791Z,45.53
2019-01-20T13:32:42.512Z,42.30
2019-01-20T13:33:46.051Z,48.23
2019-01-20T13:34:49.608Z,46.00
2019-01-20T13:35:53.187Z,49.00
2019-01-20T13:36:56.708Z,42.57